Time;durP1;ratioP1;P1;durP2;ratioP2;P2;SDS_P1;SDS_P2;PMS_P1;PMS_P2;Temp;Humidity;BMP_temperature;BMP_pressure;BME280_temperature;BME280_humidity;BME280_pressure;Samples;Min_cycle;Max_cycle;Signal;HPM_P1;HPM_P2
2023/10/09 00:03:06;;;;;;;21.50;12.63;;;;;;;;;;5052217;28;20033;-45
2023/10/09 00:08:21;;;;;;;16.15;8.70;;;;;;;;;;5064369;28;20029;-46
2023/10/09 00:10:58;;;;;;;15.25;8.00;;;;;;;;;;5064511;28;20029;-46
2023/10/09 00:13:30;;;;;;;17.40;8.02;;;;;;;;;;5064350;28;20032;-46
2023/10/09 00:16:14;;;;;;;13.55;6.82;;;;;;;;;;5065491;28;20025;-46
2023/10/09 00:18:46;;;;;;;10.00;5.20;;;;;;;;;;5065122;28;20233;-45
2023/10/09 00:21:20;;;;;;;9.30;4.72;;;;;;;;;;5066000;28;20194;-47
2023/10/09 00:23:55;;;;;;;8.60;5.00;;;;;;;;;;5065039;28;20037;-41
2023/10/09 00:26:23;;;;;;;7.95;4.28;;;;;;;;;;5066093;28;20036;-40
2023/10/09 00:28:51;;;;;;;10.40;4.65;;;;;;;;;;5065536;28;20221;-44
2023/10/09 00:31:33;;;;;;;7.20;4.10;;;;;;;;;;5065875;28;20024;-43
2023/10/09 00:34:05;;;;;;;11.63;4.15;;;;;;;;;;5065675;28;20131;-43
2023/10/09 00:36:32;;;;;;;;;;;;;;;;;;5066130;28;20039;-43
2023/10/09 00:39:12;;;;;;;7.35;4.05;;;;;;;;;;5065533;28;20105;-47
2023/10/09 00:41:41;;;;;;;8.40;4.05;;;;;;;;;;5065699;28;20040;-43
2023/10/09 00:44:08;;;;;;;8.68;4.82;;;;;;;;;;5065581;28;20060;-40
2023/10/09 00:46:35;;;;;;;11.65;4.10;;;;;;;;;;5065753;28;20074;-42
2023/10/09 00:49:02;;;;;;;7.25;4.00;;;;;;;;;;5065223;28;20033;-40
2023/10/09 00:51:35;;;;;;;9.82;4.07;;;;;;;;;;5065584;28;20049;-44
2023/10/09 00:54:27;;;;;;;8.23;3.67;;;;;;;;;;5065189;28;20075;-45
2023/10/09 00:56:57;;;;;;;5.95;3.55;;;;;;;;;;5065256;28;20037;-41
2023/10/09 00:59:24;;;;;;;5.43;3.55;;;;;;;;;;5065594;28;20040;-42
2023/10/09 01:02:05;;;;;;;6.72;3.65;;;;;;;;;;5065449;28;20032;-42
2023/10/09 01:04:32;;;;;;;10.95;4.18;;;;;;;;;;5064850;28;20221;-44
2023/10/09 01:07:15;;;;;;;9.23;4.32;;;;;;;;;;5065654;28;20060;-43
2023/10/09 01:09:45;;;;;;;9.27;4.57;;;;;;;;;;5064933;28;20037;-42
2023/10/09 01:12:18;;;;;;;10.48;4.28;;;;;;;;;;5065219;28;20029;-43
2023/10/09 01:14:44;;;;;;;7.63;3.67;;;;;;;;;;5064959;28;20067;-42
2023/10/09 01:17:11;;;;;;;4.07;3.67;;;;;;;;;;5065111;28;20101;-45
2023/10/09 01:19:39;;;;;;;7.57;3.20;;;;;;;;;;5064801;28;20036;-43
2023/10/09 01:22:15;;;;;;;7.25;3.30;;;;;;;;;;5065109;28;20021;-42
2023/10/09 01:24:44;;;;;;;9.57;3.53;;;;;;;;;;5064526;28;20037;-43
2023/10/09 01:27:16;;;;;;;8.27;3.40;;;;;;;;;;5065037;28;20197;-43
2023/10/09 01:29:44;;;;;;;6.63;3.63;;;;;;;;;;5064483;28;20064;-47
2023/10/09 01:32:20;;;;;;;5.47;2.88;;;;;;;;;;5064834;28;20032;-45
2023/10/09 01:34:50;;;;;;;7.22;3.03;;;;;;;;;;5064485;28;20021;-46
2023/10/09 01:37:30;;;;;;;7.28;2.95;;;;;;;;;;5064710;28;20021;-44
2023/10/09 01:39:59;;;;;;;8.15;3.25;;;;;;;;;;5064409;28;20032;-41
2023/10/09 01:45:09;;;;;;;3.63;2.70;;;;;;;;;;5064517;28;20021;-46
2023/10/09 01:47:37;;;;;;;6.22;2.90;;;;;;;;;;5064236;28;20100;-42
2023/10/09 01:50:09;;;;;;;3.35;2.60;;;;;;;;;;5064054;28;20028;-40
2023/10/09 01:52:37;;;;;;;5.18;2.75;;;;;;;;;;5064145;28;20087;-42
2023/10/09 01:55:09;;;;;;;7.93;2.90;;;;;;;;;;5064031;28;20017;-40
2023/10/09 01:57:39;;;;;;;4.07;2.60;;;;;;;;;;5064124;28;20027;-44
2023/10/09 02:00:07;;;;;;;5.40;2.72;;;;;;;;;;5064043;28;20052;-45
2023/10/09 02:02:34;;;;;;;4.75;2.85;;;;;;;;;;5064353;28;20021;-44
2023/10/09 02:07:44;;;;;;;8.52;2.80;;;;;;;;;;5064012;28;20338;-44
2023/10/09 02:10:25;;;;;;;9.80;2.60;;;;;;;;;;5063877;28;20088;-45
2023/10/09 02:12:58;;;;;;;5.00;2.65;;;;;;;;;;5063886;28;20096;-40
2023/10/09 02:18:39;;;;;;;5.28;2.42;;;;;;;;;;5063920;28;20032;-42
2023/10/09 02:21:14;;;;;;;5.28;3.05;;;;;;;;;;5063733;28;20104;-45
2023/10/09 02:26:09;;;;;;;6.68;2.75;;;;;;;;;;5063959;28;20013;-44
2023/10/09 02:28:36;;;;;;;6.57;2.85;;;;;;;;;;5063706;28;20043;-42
2023/10/09 02:31:13;;;;;;;6.78;2.75;;;;;;;;;;5063530;28;20032;-42
2023/10/09 02:33:40;;;;;;;10.65;3.20;;;;;;;;;;5069134;28;20044;-48
2023/10/09 02:36:07;;;;;;;14.93;4.00;;;;;;;;;;5083896;28;20033;-47
2023/10/09 02:38:35;;;;;;;12.23;3.53;;;;;;;;;;5083311;28;20028;-36
2023/10/09 02:43:50;;;;;;;5.70;3.35;;;;;;;;;;5088329;28;20095;-40
2023/10/09 02:46:18;;;;;;;6.63;2.80;;;;;;;;;;5081567;28;20028;-39
2023/10/09 02:48:51;;;;;;;5.85;2.80;;;;;;;;;;5073108;28;20041;-43
2023/10/09 02:53:54;;;;;;;4.93;2.92;;;;;;;;;;5067691;28;20267;-41
2023/10/09 02:56:36;;;;;;;6.28;2.72;;;;;;;;;;5069966;28;20021;-43
2023/10/09 02:59:08;;;;;;;;;;;;;;;;;;5079952;28;20036;-36
2023/10/09 03:01:39;;;;;;;8.00;2.88;;;;;;;;;;5067814;28;19904;-36
2023/10/09 03:04:06;;;;;;;4.90;3.10;;;;;;;;;;5065570;28;20096;-52
2023/10/09 03:06:38;;;;;;;3.88;3.00;;;;;;;;;;5072712;28;20339;-38
2023/10/09 03:09:16;;;;;;;5.45;2.60;;;;;;;;;;5085458;28;20041;-39
2023/10/09 03:11:53;;;;;;;6.60;2.65;;;;;;;;;;5080668;28;20039;-40
2023/10/09 03:14:20;;;;;;;6.63;2.90;;;;;;;;;;5068635;28;20024;-38
2023/10/09 03:16:50;;;;;;;5.18;3.05;;;;;;;;;;5065125;28;20329;-40
2023/10/09 03:19:17;;;;;;;7.03;2.70;;;;;;;;;;5067082;28;20321;-43
2023/10/09 03:21:44;;;;;;;6.22;3.00;;;;;;;;;;5074618;28;20029;-47
2023/10/09 03:24:11;;;;;;;6.07;2.97;;;;;;;;;;5077999;28;20074;-42
2023/10/09 03:26:38;;;;;;;4.55;2.60;;;;;;;;;;5069836;28;20189;-39
2023/10/09 03:29:09;;;;;;;6.00;2.95;;;;;;;;;;5071391;28;20032;-42
2023/10/09 03:31:37;;;;;;;6.65;2.78;;;;;;;;;;5075704;28;20027;-41
2023/10/09 03:34:04;;;;;;;8.93;3.42;;;;;;;;;;5075134;28;20025;-37
2023/10/09 03:36:37;;;;;;;4.10;2.90;;;;;;;;;;5071592;28;20040;-40
2023/10/09 03:39:18;;;;;;;5.28;3.40;;;;;;;;;;5073077;28;20028;-40
2023/10/09 03:41:47;;;;;;;9.80;3.58;;;;;;;;;;5077288;28;20091;-39
2023/10/09 03:44:18;;;;;;;7.47;3.50;;;;;;;;;;5074817;28;20112;-43
2023/10/09 03:46:51;;;;;;;7.72;3.50;;;;;;;;;;5090757;28;20212;-40
2023/10/09 03:49:23;;;;;;;6.03;3.30;;;;;;;;;;5077982;28;20165;-40
2023/10/09 03:51:55;;;;;;;7.70;3.03;;;;;;;;;;5067893;28;20020;-46
2023/10/09 03:54:22;;;;;;;6.35;2.90;;;;;;;;;;5073793;28;20059;-40
2023/10/09 03:56:54;;;;;;;6.28;3.10;;;;;;;;;;5085654;28;20032;-43
2023/10/09 03:59:21;;;;;;;4.53;3.10;;;;;;;;;;5086522;28;20080;-41
2023/10/09 04:01:50;;;;;;;6.53;2.75;;;;;;;;;;5086786;28;20096;-38
2023/10/09 04:04:22;;;;;;;5.10;2.80;;;;;;;;;;5081765;28;20067;-47
2023/10/09 04:06:51;;;;;;;3.30;2.83;;;;;;;;;;5075243;28;20267;-39
2023/10/09 04:11:46;;;;;;;4.10;2.70;;;;;;;;;;5086752;28;20020;-46
2023/10/09 04:14:24;;;;;;;6.55;2.95;;;;;;;;;;5086322;28;20021;-45
2023/10/09 04:16:51;;;;;;;6.28;2.45;;;;;;;;;;5086624;28;20035;-43
2023/10/09 04:19:22;;;;;;;9.55;3.10;;;;;;;;;;5078190;28;20380;-42
2023/10/09 04:21:49;;;;;;;6.72;2.83;;;;;;;;;;5069465;28;20248;-47
2023/10/09 04:26:46;;;;;;;3.63;2.58;;;;;;;;;;5066195;28;20250;-45
2023/10/09 04:29:38;;;;;;;7.93;2.53;;;;;;;;;;5065943;28;20060;-51
2023/10/09 04:32:09;;;;;;;6.35;3.08;;;;;;;;;;5066098;28;20072;-40
2023/10/09 04:34:36;;;;;;;8.57;3.25;;;;;;;;;;5065770;28;20029;-40
2023/10/09 04:39:48;;;;;;;8.68;3.03;;;;;;;;;;5065815;28;20025;-42
2023/10/09 04:48:06;;;;;;;9.00;3.00;;;;;;;;;;5066012;28;20036;-41
2023/10/09 04:53:13;;;;;;;6.43;3.20;;;;;;;;;;5065352;28;20057;-47
2023/10/09 04:55:53;;;;;;;7.03;3.20;;;;;;;;;;5065419;28;20025;-40
2023/10/09 04:58:27;;;;;;;6.68;3.25;;;;;;;;;;5064128;28;20033;-45
2023/10/09 05:03:42;;;;;;;5.88;3.00;;;;;;;;;;5064865;28;20286;-48
2023/10/09 05:06:42;;;;;;;6.35;2.95;;;;;;;;;;5065216;28;20281;-43
2023/10/09 05:09:08;;;;;;;4.80;2.97;;;;;;;;;;5064943;28;20041;-45
2023/10/09 05:11:56;;;;;;;4.10;3.10;;;;;;;;;;5065386;28;20013;-44
2023/10/09 05:14:38;;;;;;;4.80;3.20;;;;;;;;;;5065001;28;20040;-45
2023/10/09 05:17:09;;;;;;;7.70;3.33;;;;;;;;;;5063990;28;20016;-40
2023/10/09 05:19:41;;;;;;;9.30;3.50;;;;;;;;;;5063798;28;20068;-47
2023/10/09 05:22:17;;;;;;;7.90;3.65;;;;;;;;;;5065254;28;20017;-45
2023/10/09 05:24:46;;;;;;;6.43;3.30;;;;;;;;;;5064684;28;20210;-47
2023/10/09 05:27:45;;;;;;;7.07;3.80;;;;;;;;;;5065154;28;20029;-48
2023/10/09 05:30:24;;;;;;;8.02;3.70;;;;;;;;;;5064534;28;20052;-48
2023/10/09 05:33:04;;;;;;;9.30;3.90;;;;;;;;;;5064708;28;20025;-44
2023/10/09 05:35:40;;;;;;;5.65;3.47;;;;;;;;;;5063486;28;20074;-42
2023/10/09 05:38:23;;;;;;;6.15;3.70;;;;;;;;;;5076934;28;20090;-41
2023/10/09 05:40:53;;;;;;;5.18;3.30;;;;;;;;;;5084812;28;20090;-43
2023/10/09 05:46:09;;;;;;;8.77;2.97;;;;;;;;;;5084364;28;20055;-46
2023/10/09 06:04:18;;;;;;;4.60;2.97;;;;;;;;;;5064164;28;20033;-40
2023/10/09 06:06:45;;;;;;;6.97;3.28;;;;;;;;;;5064192;28;20056;-45
2023/10/09 06:11:49;;;;;;;4.72;3.00;;;;;;;;;;5064406;28;20193;-47
2023/10/09 06:14:45;;;;;;;3.53;2.55;;;;;;;;;;5064300;28;20268;-47
2023/10/09 06:17:50;;;;;;;5.00;3.05;;;;;;;;;;5063723;28;20319;-44
2023/10/09 06:20:39;;;;;;;3.38;2.60;;;;;;;;;;5079107;28;20032;-46
2023/10/09 06:22:58;;;;;;;5.25;2.67;;;;;;;;;;5083978;28;20121;-44
2023/10/09 06:25:32;;;;;;;7.90;2.78;;;;;;;;;;5082824;28;20194;-48
2023/10/09 06:27:59;;;;;;;6.78;2.90;;;;;;;;;;5083877;28;20040;-45
2023/10/09 06:30:27;;;;;;;7.45;2.95;;;;;;;;;;5083710;28;20040;-43
2023/10/09 06:35:33;;;;;;;5.95;2.90;;;;;;;;;;5083919;28;20748;-44
2023/10/09 06:43:17;;;;;;;5.32;2.90;;;;;;;;;;5083780;28;20083;-45
2023/10/09 06:45:45;;;;;;;6.45;3.10;;;;;;;;;;5083693;28;20205;-47
2023/10/09 06:51:07;;;;;;;5.53;3.03;;;;;;;;;;5083675;28;20102;-47
2023/10/09 06:59:03;;;;;;;4.65;2.88;;;;;;;;;;5083587;28;20089;-45
2023/10/09 07:01:42;;;;;;;9.20;3.00;;;;;;;;;;5083777;28;20099;-47
2023/10/09 07:04:18;;;;;;;5.72;2.90;;;;;;;;;;5083583;28;20105;-47
2023/10/09 07:06:51;;;;;;;12.82;3.28;;;;;;;;;;5083568;28;20115;-40
2023/10/09 07:09:21;;;;;;;6.32;2.67;;;;;;;;;;5083413;28;20024;-44
2023/10/09 07:17:00;;;;;;;26.55;4.65;;;;;;;;;;5083771;28;20091;-41
2023/10/09 07:27:53;;;;;;;41.28;6.55;;;;;;;;;;5066177;28;20037;-42
2023/10/09 07:38:28;;;;;;;12.50;3.72;;;;;;;;;;5086856;28;20021;-45
2023/10/09 07:40:59;;;;;;;10.50;3.45;;;;;;;;;;5086874;28;20292;-42
2023/10/09 07:43:35;;;;;;;11.32;3.40;;;;;;;;;;5086680;28;20210;-47
2023/10/09 07:48:48;;;;;;;13.25;3.40;;;;;;;;;;5086631;28;20085;-41
2023/10/09 07:51:16;;;;;;;10.18;3.15;;;;;;;;;;5086804;28;20025;-43
2023/10/09 07:53:45;;;;;;;8.00;2.92;;;;;;;;;;5086576;28;20116;-42
2023/10/09 07:56:20;;;;;;;5.57;3.38;;;;;;;;;;5086676;28;20087;-46
2023/10/09 07:58:51;;;;;;;9.57;2.97;;;;;;;;;;5086472;28;20039;-41
2023/10/09 08:01:39;;;;;;;6.53;3.60;;;;;;;;;;5086763;28;20039;-45
2023/10/09 08:04:10;;;;;;;5.80;3.03;;;;;;;;;;5086106;28;20033;-44
2023/10/09 08:06:38;;;;;;;4.63;2.65;;;;;;;;;;5086284;28;20094;-44
2023/10/09 08:17:11;;;;;;;11.25;3.35;;;;;;;;;;5086023;28;20020;-43
2023/10/09 08:19:54;;;;;;;8.63;3.30;;;;;;;;;;5085391;28;20108;-41
2023/10/09 08:22:43;;;;;;;10.32;2.92;;;;;;;;;;5076908;28;20030;-42
2023/10/09 08:25:26;;;;;;;8.50;3.17;;;;;;;;;;5085951;28;20039;-46
2023/10/09 08:31:18;;;;;;;7.13;3.13;;;;;;;;;;5063955;28;20045;-47
2023/10/09 08:33:56;;;;;;;7.55;3.40;;;;;;;;;;5084334;28;20040;-49
2023/10/09 08:36:28;;;;;;;5.25;3.10;;;;;;;;;;5086067;28;20031;-45
2023/10/09 08:38:58;;;;;;;6.88;3.58;;;;;;;;;;5085260;28;20043;-45
2023/10/09 08:41:29;;;;;;;7.38;3.70;;;;;;;;;;5085825;28;20032;-42
2023/10/09 08:43:57;;;;;;;7.15;3.65;;;;;;;;;;5085652;28;20025;-48
2023/10/09 08:46:26;;;;;;;10.15;3.67;;;;;;;;;;5086032;28;20035;-45
2023/10/09 08:48:57;;;;;;;7.68;3.55;;;;;;;;;;5085537;28;20035;-48
2023/10/09 08:51:25;;;;;;;5.88;3.33;;;;;;;;;;5085886;28;20051;-45
2023/10/09 08:53:52;;;;;;;8.90;3.55;;;;;;;;;;5085621;28;20035;-44
2023/10/09 08:56:22;;;;;;;11.75;3.60;;;;;;;;;;5085523;28;20019;-47
2023/10/09 08:58:51;;;;;;;7.57;3.35;;;;;;;;;;5085514;28;20088;-45
2023/10/09 09:01:24;;;;;;;7.32;3.28;;;;;;;;;;5085209;28;20344;-48
2023/10/09 09:03:51;;;;;;;8.05;3.22;;;;;;;;;;5085264;28;20027;-47
2023/10/09 09:06:19;;;;;;;5.03;3.33;;;;;;;;;;5085434;28;20347;-47
2023/10/09 09:08:46;;;;;;;6.30;3.25;;;;;;;;;;5084928;28;20024;-42
2023/10/09 09:11:22;;;;;;;5.90;3.70;;;;;;;;;;5085463;28;20065;-46
2023/10/09 09:14:06;;;;;;;5.07;3.30;;;;;;;;;;5085031;28;20339;-47
2023/10/09 09:16:35;;;;;;;6.32;3.55;;;;;;;;;;5085259;28;20266;-44
2023/10/09 09:21:41;;;;;;;5.28;3.17;;;;;;;;;;5085161;28;20209;-45
2023/10/09 09:26:58;;;;;;;6.85;3.13;;;;;;;;;;5085056;28;20040;-46
2023/10/09 09:29:37;;;;;;;4.57;3.25;;;;;;;;;;5084844;28;20032;-45
2023/10/09 09:32:20;;;;;;;3.58;2.97;;;;;;;;;;5085018;28;20036;-46
2023/10/09 09:34:49;;;;;;;6.03;3.55;;;;;;;;;;5084632;28;20032;-47
2023/10/09 09:37:28;;;;;;;6.90;3.20;;;;;;;;;;5084874;28;20059;-45
2023/10/09 09:40:11;;;;;;;8.55;3.65;;;;;;;;;;5084518;28;20095;-47
2023/10/09 09:42:48;;;;;;;5.05;3.53;;;;;;;;;;5084477;28;20036;-47
2023/10/09 09:45:16;;;;;;;4.20;3.17;;;;;;;;;;5084402;28;20032;-44
2023/10/09 09:47:54;;;;;;;5.68;3.03;;;;;;;;;;5084302;28;20280;-44
2023/10/09 09:50:29;;;;;;;7.05;3.55;;;;;;;;;;5084297;28;20040;-43
2023/10/09 09:52:56;;;;;;;5.32;3.38;;;;;;;;;;5084231;28;20343;-47
2023/10/09 09:55:43;;;;;;;8.05;3.28;;;;;;;;;;5084418;28;20035;-42
2023/10/09 09:58:18;;;;;;;4.65;3.55;;;;;;;;;;5084187;28;20017;-48
2023/10/09 10:00:52;;;;;;;5.43;3.22;;;;;;;;;;5084294;28;20065;-47
2023/10/09 10:03:25;;;;;;;4.15;3.10;;;;;;;;;;5084225;28;20032;-45
2023/10/09 10:05:52;;;;;;;4.38;3.40;;;;;;;;;;5084142;28;20321;-48
2023/10/09 10:08:20;;;;;;;4.03;3.40;;;;;;;;;;5084158;28;20258;-48
2023/10/09 10:10:49;;;;;;;5.07;3.35;;;;;;;;;;5084089;28;20091;-50
2023/10/09 10:13:23;;;;;;;8.00;3.40;;;;;;;;;;5084208;28;20332;-47
2023/10/09 10:16:00;;;;;;;13.20;3.80;;;;;;;;;;5084362;28;20020;-43
2023/10/09 10:18:51;;;;;;;12.65;3.63;;;;;;;;;;5084156;28;20233;-46
2023/10/09 10:21:17;;;;;;;13.75;3.92;;;;;;;;;;5084099;28;20020;-46
2023/10/09 10:23:47;;;;;;;11.95;3.92;;;;;;;;;;5084179;28;20036;-43
2023/10/09 10:26:18;;;;;;;12.05;3.83;;;;;;;;;;5084052;28;20036;-44
2023/10/09 10:28:45;;;;;;;12.55;3.70;;;;;;;;;;5083597;28;20044;-44
2023/10/09 10:31:15;;;;;;;12.45;3.58;;;;;;;;;;5083279;28;20024;-47
2023/10/09 10:33:54;;;;;;;12.02;3.53;;;;;;;;;;5076323;28;20043;-46
2023/10/09 10:36:26;;;;;;;15.75;4.18;;;;;;;;;;5082079;28;20043;-43
2023/10/09 10:39:21;;;;;;;11.40;3.72;;;;;;;;;;5077185;28;20316;-44
2023/10/09 10:41:59;;;;;;;31.20;5.88;;;;;;;;;;5067083;28;20040;-44
2023/10/09 10:44:38;;;;;;;15.35;4.43;;;;;;;;;;5067971;28;20390;-42
2023/10/09 10:47:21;;;;;;;9.60;4.43;;;;;;;;;;5082760;28;20033;-34
2023/10/09 10:49:50;;;;;;;16.40;3.88;;;;;;;;;;5077474;28;20032;-43
2023/10/09 10:52:35;;;;;;;15.02;4.60;;;;;;;;;;5069144;28;20105;-43
2023/10/09 10:58:00;;;;;;;11.13;4.50;;;;;;;;;;5083647;28;20450;-39
2023/10/09 11:06:17;;;;;;;;;;;;;;;;;;5066237;28;20360;-39
2023/10/09 11:09:08;;;;;;;8.50;5.22;;;;;;;;;;5067434;28;19909;-40
2023/10/09 11:11:41;;;;;;;11.23;5.97;;;;;;;;;;5078224;28;20096;-41
2023/10/09 11:14:14;;;;;;;16.65;5.68;;;;;;;;;;5086898;28;20310;-40
2023/10/09 11:16:41;;;;;;;13.77;5.88;;;;;;;;;;5080462;28;20028;-40
2023/10/09 11:19:31;;;;;;;11.50;5.63;;;;;;;;;;5070326;28;20033;-46
2023/10/09 11:24:35;;;;;;;7.57;4.68;;;;;;;;;;5065533;28;20087;-43
2023/10/09 11:27:06;;;;;;;8.73;4.47;;;;;;;;;;5064917;28;20067;-40
2023/10/09 11:32:18;;;;;;;8.48;4.57;;;;;;;;;;5085253;28;20025;-41
2023/10/09 11:34:51;;;;;;;7.55;4.47;;;;;;;;;;5086337;28;20059;-43
2023/10/09 11:39:55;;;;;;;4.85;4.07;;;;;;;;;;5079563;28;20184;-35
2023/10/09 11:45:37;;;;;;;10.15;4.18;;;;;;;;;;5065137;28;20320;-48
2023/10/09 11:47:58;;;;;;;9.85;4.65;;;;;;;;;;5063846;28;20082;-45
2023/10/09 11:50:43;;;;;;;8.18;4.90;;;;;;;;;;5069261;28;20036;-44
2023/10/09 11:55:49;;;;;;;6.07;4.47;;;;;;;;;;5084850;28;20020;-40
2023/10/09 11:58:23;;;;;;;7.03;4.85;;;;;;;;;;5075883;28;20208;-39
2023/10/09 12:00:51;;;;;;;11.40;8.13;;;;;;;;;;5086891;28;20336;-46
2023/10/09 12:03:23;;;;;;;10.27;5.88;;;;;;;;;;5086526;28;20031;-39
2023/10/09 12:05:50;;;;;;;10.52;5.07;;;;;;;;;;5077768;28;20061;-37
2023/10/09 12:08:16;;;;;;;8.82;4.97;;;;;;;;;;5072093;28;20348;-45
2023/10/09 12:10:43;;;;;;;9.68;4.97;;;;;;;;;;5066460;28;20025;-37
2023/10/09 12:13:10;;;;;;;6.00;4.75;;;;;;;;;;5065014;28;20082;-34
2023/10/09 12:15:37;;;;;;;9.98;4.85;;;;;;;;;;5072846;28;20028;-40
2023/10/09 12:18:14;;;;;;;8.30;5.00;;;;;;;;;;5070784;28;20209;-37
2023/10/09 12:20:55;;;;;;;10.63;4.43;;;;;;;;;;5066200;28;20092;-40
2023/10/09 12:23:27;;;;;;;9.40;4.70;;;;;;;;;;5074949;28;20044;-42
2023/10/09 12:25:56;;;;;;;;;;;;;;;;;;5078539;28;20039;-45
2023/10/09 12:28:23;;;;;;;12.13;4.45;;;;;;;;;;5078102;28;20073;-42
2023/10/09 12:30:53;;;;;;;14.45;5.43;;;;;;;;;;5072194;28;20029;-47
2023/10/09 12:33:26;;;;;;;12.27;4.72;;;;;;;;;;5083402;28;20027;-44
2023/10/09 12:35:52;;;;;;;11.27;4.70;;;;;;;;;;5075191;28;20159;-41
2023/10/09 12:38:22;;;;;;;14.15;4.55;;;;;;;;;;5085412;28;20032;-47
2023/10/09 12:40:53;;;;;;;15.52;4.20;;;;;;;;;;5071253;28;20025;-43
2023/10/09 12:43:22;;;;;;;12.75;4.32;;;;;;;;;;5071045;28;20032;-43
2023/10/09 12:45:48;;;;;;;9.35;4.13;;;;;;;;;;5074361;28;20103;-48
2023/10/09 12:48:15;;;;;;;7.43;3.70;;;;;;;;;;5078803;28;20054;-55
2023/10/09 12:50:44;;;;;;;7.53;4.10;;;;;;;;;;5081858;28;20032;-36
2023/10/09 12:53:11;;;;;;;7.97;4.57;;;;;;;;;;5084086;28;20055;-42
2023/10/09 12:55:40;;;;;;;8.98;4.78;;;;;;;;;;5077425;28;20020;-41
2023/10/09 12:58:07;;;;;;;11.02;4.63;;;;;;;;;;5070022;28;20028;-44
2023/10/09 13:00:37;;;;;;;9.95;4.35;;;;;;;;;;5072668;28;20059;-45
2023/10/09 13:03:16;;;;;;;10.23;4.35;;;;;;;;;;5072894;28;20035;-37
2023/10/09 13:05:54;;;;;;;7.95;4.45;;;;;;;;;;5071547;28;20044;-38
2023/10/09 13:08:31;;;;;;;8.68;4.43;;;;;;;;;;5065429;28;20047;-36
2023/10/09 13:11:10;;;;;;;5.72;3.63;;;;;;;;;;5063405;28;20053;-40
2023/10/09 13:13:40;;;;;;;7.88;3.92;;;;;;;;;;5064606;28;20039;-40
2023/10/09 13:16:07;;;;;;;7.70;3.83;;;;;;;;;;5063319;28;20023;-38
2023/10/09 13:18:35;;;;;;;7.35;4.03;;;;;;;;;;5064075;28;20033;-39
2023/10/09 13:21:03;;;;;;;7.60;4.25;;;;;;;;;;5063412;28;20024;-40
2023/10/09 13:23:39;;;;;;;6.05;3.70;;;;;;;;;;5063297;28;20225;-43
2023/10/09 13:26:23;;;;;;;7.90;4.10;;;;;;;;;;5063900;28;20025;-38
2023/10/09 13:28:51;;;;;;;6.03;3.65;;;;;;;;;;5063868;28;20094;-44
2023/10/09 13:31:17;;;;;;;5.18;3.78;;;;;;;;;;5064116;28;20298;-40
2023/10/09 13:33:45;;;;;;;7.38;3.67;;;;;;;;;;5064080;28;20021;-43
2023/10/09 13:36:27;;;;;;;6.97;3.95;;;;;;;;;;5064742;28;20063;-44
2023/10/09 13:38:54;;;;;;;;;;;;;;;;;;5064936;28;20029;-40
2023/10/09 13:41:20;;;;;;;6.45;3.50;;;;;;;;;;5064698;28;19912;-45
2023/10/09 13:43:47;;;;;;;4.15;3.28;;;;;;;;;;5064463;28;20108;-39
2023/10/09 13:46:17;;;;;;;6.43;3.97;;;;;;;;;;5064604;28;20025;-44
2023/10/09 13:48:45;;;;;;;3.80;3.33;;;;;;;;;;5064251;28;20033;-45
2023/10/09 13:51:18;;;;;;;4.50;3.28;;;;;;;;;;5064577;28;20029;-43
2023/10/09 13:53:47;;;;;;;4.95;3.65;;;;;;;;;;5064354;28;20209;-42
2023/10/09 13:56:18;;;;;;;4.18;3.08;;;;;;;;;;5064359;28;20056;-41
2023/10/09 13:58:45;;;;;;;3.30;3.00;;;;;;;;;;5064381;28;20021;-41
2023/10/09 14:01:26;;;;;;;4.40;3.22;;;;;;;;;;5064451;28;20076;-42
2023/10/09 14:03:56;;;;;;;6.45;3.00;;;;;;;;;;5064105;28;20075;-43
2023/10/09 14:06:32;;;;;;;4.97;3.00;;;;;;;;;;5064193;28;20259;-42
2023/10/09 14:09:02;;;;;;;4.68;3.03;;;;;;;;;;5064171;28;20241;-44
2023/10/09 14:11:28;;;;;;;4.20;3.10;;;;;;;;;;5064207;28;20204;-44
2023/10/09 14:13:55;;;;;;;6.15;3.10;;;;;;;;;;5063902;28;20028;-49
2023/10/09 14:16:27;;;;;;;3.45;2.80;;;;;;;;;;5064108;28;20236;-46
2023/10/09 14:18:57;;;;;;;4.00;2.80;;;;;;;;;;5063928;28;20029;-45
2023/10/09 14:21:25;;;;;;;4.60;3.00;;;;;;;;;;5063950;28;20032;-44
2023/10/09 14:23:57;;;;;;;4.20;2.72;;;;;;;;;;5064149;28;20021;-43
2023/10/09 14:26:25;;;;;;;4.40;2.67;;;;;;;;;;5064224;28;20027;-46
2023/10/09 14:28:52;;;;;;;3.20;2.90;;;;;;;;;;5063639;28;21873;-45
2023/10/09 14:31:26;;;;;;;5.43;3.15;;;;;;;;;;5063936;28;20048;-45
2023/10/09 14:33:53;;;;;;;3.17;2.83;;;;;;;;;;5063660;28;20096;-45
2023/10/09 14:36:21;;;;;;;3.67;2.70;;;;;;;;;;5063163;28;20037;-49
2023/10/09 14:38:55;;;;;;;4.70;2.88;;;;;;;;;;5063695;28;20321;-46
2023/10/09 14:41:23;;;;;;;5.35;2.95;;;;;;;;;;5063750;28;20016;-47
2023/10/09 14:43:53;;;;;;;3.10;2.80;;;;;;;;;;5063599;28;20033;-47
2023/10/09 14:46:30;;;;;;;4.95;3.03;;;;;;;;;;5063511;28;20331;-45
2023/10/09 14:48:59;;;;;;;6.53;3.17;;;;;;;;;;5063901;28;20278;-45
2023/10/09 14:51:29;;;;;;;4.15;3.22;;;;;;;;;;5063987;28;20209;-45
2023/10/09 14:54:01;;;;;;;5.75;3.30;;;;;;;;;;5063639;28;20093;-46
2023/10/09 14:56:30;;;;;;;;;;;;;;;;;;5064124;28;20084;-41
2023/10/09 14:59:01;;;;;;;8.13;3.00;;;;;;;;;;5063575;28;20189;-42
2023/10/09 15:01:31;;;;;;;4.25;3.10;;;;;;;;;;5063569;28;20060;-45
2023/10/09 15:04:00;;;;;;;6.35;3.05;;;;;;;;;;5063724;28;20210;-43
2023/10/09 15:06:29;;;;;;;5.82;3.17;;;;;;;;;;5063491;28;20053;-40
2023/10/09 15:08:57;;;;;;;9.60;3.35;;;;;;;;;;5063153;28;20281;-41
2023/10/09 15:11:25;;;;;;;4.55;3.22;;;;;;;;;;5063707;28;20016;-42
2023/10/09 15:13:53;;;;;;;6.00;3.40;;;;;;;;;;5063314;28;20246;-43
2023/10/09 15:16:21;;;;;;;8.98;3.60;;;;;;;;;;5063465;28;20077;-43
2023/10/09 15:18:52;;;;;;;8.48;3.22;;;;;;;;;;5063334;28;20191;-43
2023/10/09 15:21:23;;;;;;;8.77;3.67;;;;;;;;;;5063273;28;20036;-43
2023/10/09 15:23:54;;;;;;;5.82;3.20;;;;;;;;;;5062025;28;20036;-42
2023/10/09 15:26:21;;;;;;;5.38;3.38;;;;;;;;;;5063272;28;20087;-46
2023/10/09 15:28:50;;;;;;;4.82;3.58;;;;;;;;;;5062908;28;20025;-40
2023/10/09 15:31:16;;;;;;;4.30;3.13;;;;;;;;;;5062975;28;20074;-44
2023/10/09 15:33:44;;;;;;;5.40;3.03;;;;;;;;;;5063027;28;20032;-44
2023/10/09 15:36:11;;;;;;;4.82;3.22;;;;;;;;;;5063127;28;20023;-42
2023/10/09 15:38:38;;;;;;;6.22;3.17;;;;;;;;;;5063027;28;20029;-44
2023/10/09 15:41:06;;;;;;;3.92;3.40;;;;;;;;;;5063361;28;20029;-44
2023/10/09 15:43:33;;;;;;;5.22;3.40;;;;;;;;;;5062853;28;20266;-42
2023/10/09 15:46:01;;;;;;;9.60;3.65;;;;;;;;;;5063102;28;20328;-42
2023/10/09 15:48:28;;;;;;;7.50;3.33;;;;;;;;;;5065138;28;20033;-46
2023/10/09 15:50:55;;;;;;;9.25;3.70;;;;;;;;;;5066250;28;20017;-40
2023/10/09 15:53:21;;;;;;;15.98;3.63;;;;;;;;;;5066459;28;20052;-42
2023/10/09 15:55:53;;;;;;;10.15;3.30;;;;;;;;;;5066488;28;20043;-46
2023/10/09 15:58:20;;;;;;;;;;;;;;;;;;5066657;28;20209;-46
2023/10/09 16:00:47;;;;;;;11.27;3.65;;;;;;;;;;5066449;28;19923;-43
2023/10/09 16:03:14;;;;;;;8.80;3.88;;;;;;;;;;5066399;28;20348;-43
2023/10/09 16:05:41;;;;;;;10.00;3.55;;;;;;;;;;5066051;28;20036;-43
2023/10/09 16:08:08;;;;;;;10.70;3.60;;;;;;;;;;5066337;28;20142;-43
2023/10/09 16:10:35;;;;;;;8.95;3.53;;;;;;;;;;5066173;28;20041;-42
2023/10/09 16:13:04;;;;;;;11.07;3.40;;;;;;;;;;5066077;28;20029;-43
2023/10/09 16:15:32;;;;;;;10.13;3.63;;;;;;;;;;5066254;28;20036;-42
2023/10/09 16:18:06;;;;;;;9.82;3.75;;;;;;;;;;5065062;28;20025;-44
2023/10/09 16:20:33;;;;;;;7.30;3.30;;;;;;;;;;5065915;28;20029;-47
2023/10/09 16:23:04;;;;;;;7.22;3.55;;;;;;;;;;5066122;28;20051;-45
2023/10/09 16:25:33;;;;;;;8.80;3.63;;;;;;;;;;5065719;28;20032;-46
2023/10/09 16:28:02;;;;;;;7.57;3.40;;;;;;;;;;5065995;28;20044;-47
2023/10/09 16:30:28;;;;;;;13.13;4.10;;;;;;;;;;5065716;28;20230;-45
2023/10/09 16:32:56;;;;;;;16.70;3.88;;;;;;;;;;5065609;28;20017;-44
2023/10/09 16:35:22;;;;;;;15.20;4.40;;;;;;;;;;5065639;28;20127;-44
2023/10/09 16:37:49;;;;;;;9.02;3.63;;;;;;;;;;5065874;28;20029;-46
2023/10/09 16:40:20;;;;;;;12.15;3.88;;;;;;;;;;5065305;28;20055;-45
2023/10/09 16:42:49;;;;;;;14.43;4.70;;;;;;;;;;5065538;28;20021;-39
2023/10/09 16:45:17;;;;;;;14.38;3.90;;;;;;;;;;5065587;28;20037;-39
2023/10/09 16:47:58;;;;;;;13.13;4.10;;;;;;;;;;5065479;28;20032;-42
2023/10/09 16:50:28;;;;;;;14.02;4.50;;;;;;;;;;5065270;28;20035;-42
2023/10/09 16:52:55;;;;;;;11.30;4.30;;;;;;;;;;5065203;28;20088;-42
2023/10/09 16:55:24;;;;;;;16.02;4.55;;;;;;;;;;5065418;28;20264;-44
2023/10/09 16:57:51;;;;;;;24.30;4.40;;;;;;;;;;5065435;28;20313;-45
2023/10/09 17:00:34;;;;;;;20.02;5.20;;;;;;;;;;5064458;28;20237;-44
2023/10/09 17:03:08;;;;;;;26.98;5.00;;;;;;;;;;5065334;28;20098;-44
2023/10/09 17:05:55;;;;;;;20.05;4.68;;;;;;;;;;5065026;28;20124;-45
2023/10/09 17:08:23;;;;;;;16.02;4.70;;;;;;;;;;5065320;28;20037;-47
2023/10/09 17:10:51;;;;;;;12.07;4.63;;;;;;;;;;5064948;28;20040;-45
2023/10/09 17:13:24;;;;;;;18.80;4.25;;;;;;;;;;5065222;28;20047;-45
2023/10/09 17:15:53;;;;;;;13.35;4.20;;;;;;;;;;5064927;28;20052;-45
2023/10/09 17:18:28;;;;;;;8.45;4.00;;;;;;;;;;5064706;28;20078;-46
2023/10/09 17:20:55;;;;;;;10.30;4.35;;;;;;;;;;5064965;28;20036;-43
2023/10/09 17:23:22;;;;;;;8.43;4.40;;;;;;;;;;5064962;28;20324;-48
2023/10/09 17:25:56;;;;;;;9.07;3.63;;;;;;;;;;5064704;28;20048;-45
2023/10/09 17:28:23;;;;;;;9.32;4.43;;;;;;;;;;5064928;28;20230;-44